createdAt,value
2018-12-04T00:01:27.618Z," 9.46"
2018-12-04T00:06:23.342Z," 9.44"
2018-12-04T00:11:20.094Z," 9.48"
2018-12-04T00:16:15.522Z," 9.48"
2018-12-04T00:21:11.119Z," 9.40"
2018-12-04T00:26:06.975Z," 9.44"
2018-12-04T00:31:03.673Z," 9.37"
2018-12-04T00:35:59.399Z," 9.43"
2018-12-04T00:40:54.865Z," 9.40"
2018-12-04T00:45:50.421Z," 9.54"
2018-12-04T00:50:46.296Z," 9.47"
2018-12-04T00:55:42.950Z," 9.37"
2018-12-04T01:00:38.511Z," 9.34"
2018-12-04T01:05:34.319Z," 9.34"
2018-12-04T01:10:29.995Z," 9.34"
2018-12-04T01:15:25.741Z," 9.28"
2018-12-04T01:20:22.460Z," 9.32"
2018-12-04T01:25:18.750Z," 9.29"
2018-12-04T01:30:14.412Z," 9.25"
2018-12-04T01:35:10.394Z," 9.18"
2018-12-04T01:40:06.570Z," 9.13"
2018-12-04T01:45:02.424Z," 9.19"
2018-12-04T01:49:57.921Z," 9.16"
2018-12-04T01:54:53.920Z," 9.22"
2018-12-04T01:59:50.745Z," 9.28"
2018-12-04T02:04:46.259Z," 9.21"
2018-12-04T02:09:42.091Z," 9.14"
2018-12-04T02:14:37.398Z," 9.22"
2018-12-04T02:19:33.406Z," 9.22"
2018-12-04T02:24:30.275Z," 9.26"
2018-12-04T02:29:25.805Z," 9.31"
2018-12-04T02:34:21.656Z," 9.28"
2018-12-04T02:39:18.152Z," 9.37"
2018-12-04T02:44:14.013Z," 9.29"
2018-12-04T02:49:09.999Z," 9.37"
2018-12-04T02:54:06.334Z," 9.34"
2018-12-04T02:59:03.668Z," 9.39"
2018-12-04T03:03:59.177Z," 9.36"
2018-12-04T03:08:55.040Z," 9.32"
2018-12-04T03:13:51.526Z," 9.13"
2018-12-04T03:18:47.080Z," 9.26"
2018-12-04T03:23:42.338Z," 9.14"
2018-12-04T03:28:38.185Z," 9.36"
2018-12-04T03:33:34.012Z," 9.37"
2018-12-04T03:38:30.810Z," 9.34"
2018-12-04T03:43:26.126Z," 9.31"
2018-12-04T03:48:22.380Z," 9.11"
2018-12-04T03:53:17.784Z," 9.16"
2018-12-04T03:58:13.497Z," 9.14"
2018-12-04T04:03:09.234Z," 9.08"
2018-12-04T04:08:06.163Z," 9.14"
2018-12-04T04:13:02.433Z," 9.13"
2018-12-04T04:17:57.730Z," 8.88"
2018-12-04T04:22:54.544Z," 8.84"
2018-12-04T04:27:50.250Z," 8.71"
2018-12-04T04:32:45.722Z," 8.63"
2018-12-04T04:37:41.584Z," 8.60"
2018-12-04T04:42:37.026Z," 8.48"
2018-12-04T04:47:33.232Z," 8.49"
2018-12-04T04:52:28.750Z," 8.27"
2018-12-04T04:57:24.885Z," 8.19"
2018-12-04T05:02:20.611Z," 8.10"
2018-12-04T05:07:16.181Z," 7.95"
2018-12-04T05:12:11.822Z," 7.95"
2018-12-04T05:17:07.206Z," 7.91"
2018-12-04T05:22:02.824Z," 7.90"
2018-12-04T05:26:58.727Z," 7.82"
2018-12-04T05:31:54.665Z," 7.95"
2018-12-04T05:36:51.624Z," 7.77"
2018-12-04T05:41:46.923Z," 7.85"
2018-12-04T05:46:42.846Z," 7.76"
2018-12-04T05:51:38.864Z," 7.67"
2018-12-04T05:56:35.712Z," 7.53"
2018-12-04T06:01:31.031Z," 7.57"
2018-12-04T06:06:27.760Z," 7.56"
2018-12-04T06:11:23.111Z," 7.61"
2018-12-04T06:16:19.064Z," 7.63"
2018-12-04T06:21:15.765Z," 7.51"
2018-12-04T06:26:11.345Z," 7.53"
2018-12-04T06:31:07.079Z," 7.63"
2018-12-04T06:36:03.034Z," 7.70"
2018-12-04T06:40:58.843Z," 7.75"
2018-12-04T06:45:54.454Z," 7.79"
2018-12-04T06:50:51.236Z," 7.69"
2018-12-04T06:55:46.749Z," 7.57"
2018-12-04T07:00:43.183Z," 7.45"
2018-12-04T07:05:39.553Z," 7.40"
2018-12-04T07:10:35.669Z," 7.43"
2018-12-04T07:15:31.258Z," 7.29"
2018-12-04T07:20:26.900Z," 7.24"
2018-12-04T07:25:22.619Z," 7.18"
2018-12-04T07:30:18.997Z," 7.20"
2018-12-04T07:35:14.551Z," 7.21"
2018-12-04T07:40:10.696Z," 7.28"
2018-12-04T07:45:06.830Z," 7.14"
2018-12-04T07:50:03.420Z," 7.11"
2018-12-04T07:54:59.496Z," 7.14"
2018-12-04T07:59:54.716Z," 7.15"
2018-12-04T08:04:50.615Z," 7.21"
2018-12-04T08:09:46.999Z," 7.33"
2018-12-04T08:14:42.809Z," 7.17"
2018-12-04T08:19:38.171Z," 7.13"
2018-12-04T08:24:34.591Z," 7.25"
2018-12-04T08:29:30.144Z," 7.35"
2018-12-04T08:34:25.898Z," 7.35"
2018-12-04T08:39:21.905Z," 7.31"
2018-12-04T08:44:17.162Z," 7.57"
2018-12-04T08:49:14.006Z," 7.47"
2018-12-04T08:54:09.565Z," 7.51"
2018-12-04T08:59:06.400Z," 7.58"
2018-12-04T09:04:01.905Z," 7.60"
2018-12-04T09:08:57.775Z," 7.56"
2018-12-04T09:13:54.508Z," 7.67"
2018-12-04T09:18:50.028Z," 7.80"
2018-12-04T09:23:45.769Z," 7.79"
2018-12-04T09:28:41.543Z," 8.00"
2018-12-04T09:33:37.349Z," 8.16"
2018-12-04T09:38:33.623Z," 8.19"
2018-12-04T09:43:29.566Z," 8.34"
2018-12-04T09:48:25.463Z," 8.26"
2018-12-04T09:53:25.260Z," 8.31"
2018-12-04T09:58:21.198Z," 8.30"
2018-12-04T10:03:16.778Z," 8.49"
2018-12-04T10:08:12.637Z," 8.52"
2018-12-04T10:13:08.491Z," 8.58"
2018-12-04T10:18:04.861Z," 8.73"
2018-12-04T10:23:00.728Z," 8.78"
2018-12-04T10:27:56.474Z," 8.92"
2018-12-04T10:32:52.250Z," 8.91"
2018-12-04T10:37:49.009Z," 9.02"
2018-12-04T10:42:44.360Z," 9.06"
2018-12-04T10:47:39.807Z," 9.22"
2018-12-04T10:52:37.140Z," 9.34"
2018-12-04T10:57:32.599Z," 9.54"
2018-12-04T11:02:28.991Z," 9.64"
2018-12-04T11:07:24.833Z," 9.80"
2018-12-04T11:12:21.312Z," 9.91"
2018-12-04T11:17:17.244Z," 9.94"
2018-12-04T11:22:13.382Z," 9.94"
2018-12-04T11:27:10.325Z," 9.69"
2018-12-04T11:32:05.751Z," 9.73"
2018-12-04T11:37:01.858Z," 9.74"
2018-12-04T11:41:57.945Z," 9.82"
2018-12-04T11:46:53.218Z," 9.79"
2018-12-04T11:51:49.235Z," 9.80"
2018-12-04T11:56:45.644Z," 9.65"
2018-12-04T12:01:41.280Z," 9.56"
2018-12-04T12:06:37.491Z," 9.51"
2018-12-04T12:11:33.003Z," 9.29"
2018-12-04T12:16:28.639Z," 9.39"
2018-12-04T12:21:24.229Z," 9.34"
2018-12-04T12:26:19.871Z," 9.19"
2018-12-04T12:31:15.501Z," 9.25"
2018-12-04T12:36:11.239Z," 9.16"
2018-12-04T12:41:06.877Z," 9.21"
2018-12-04T12:46:02.420Z," 9.11"
2018-12-04T12:50:57.689Z," 9.06"
2018-12-04T12:55:53.453Z," 9.13"
2018-12-04T13:00:49.191Z," 9.08"
2018-12-04T13:05:46.188Z," 9.06"
2018-12-04T13:10:41.462Z," 9.03"
2018-12-04T13:15:37.468Z," 9.06"
2018-12-04T13:20:33.184Z," 8.97"
2018-12-04T13:25:28.974Z," 9.02"
2018-12-04T13:30:25.736Z," 9.00"
2018-12-04T13:35:21.111Z," 8.88"
2018-12-04T13:40:17.683Z," 8.99"
2018-12-04T13:45:12.950Z," 8.97"
2018-12-04T13:50:09.651Z," 8.94"
2018-12-04T13:55:05.145Z," 8.92"
2018-12-04T14:00:03.919Z," 8.94"
2018-12-04T14:04:58.498Z," 8.87"
2018-12-04T14:09:54.478Z," 8.84"
2018-12-04T14:14:49.923Z," 8.76"
2018-12-04T14:19:45.491Z," 8.74"
2018-12-04T14:24:42.649Z," 8.84"
2018-12-04T14:29:37.941Z," 8.69"
2018-12-04T14:34:33.879Z," 8.70"
2018-12-04T14:39:29.509Z," 8.73"
2018-12-04T14:44:26.113Z," 8.63"
2018-12-04T14:49:21.343Z," 8.46"
2018-12-04T14:54:16.959Z," 8.56"
2018-12-04T14:59:12.514Z," 8.60"
2018-12-04T15:04:08.175Z," 8.51"
2018-12-04T15:09:03.918Z," 8.44"
2018-12-04T15:14:00.193Z," 8.30"
2018-12-04T15:18:55.307Z," 8.16"
2018-12-04T15:23:50.940Z," 8.16"
2018-12-04T15:28:46.540Z," 8.08"
2018-12-04T15:33:42.220Z," 8.09"
2018-12-04T15:38:37.849Z," 8.00"
2018-12-04T15:43:33.457Z," 7.87"
2018-12-04T15:48:29.072Z," 7.83"
2018-12-04T15:53:24.469Z," 7.82"
2018-12-04T15:58:21.011Z," 7.80"
2018-12-04T16:03:16.333Z," 7.70"
2018-12-04T16:08:12.965Z," 7.48"
2018-12-04T16:13:08.439Z," 7.57"
2018-12-04T16:18:04.250Z," 7.53"
2018-12-04T16:22:59.761Z," 7.45"
2018-12-04T16:27:56.095Z," 7.43"
2018-12-04T16:32:51.725Z," 7.28"
2018-12-04T16:37:47.500Z," 7.29"
2018-12-04T16:42:43.800Z," 7.20"
2018-12-04T16:47:39.280Z," 7.21"
2018-12-04T16:52:36.064Z," 7.15"
2018-12-04T16:57:31.585Z," 7.11"
2018-12-04T17:02:27.377Z," 7.20"
2018-12-04T17:07:22.620Z," 7.14"
2018-12-04T17:12:19.233Z," 7.18"
2018-12-04T17:17:15.437Z," 7.11"
2018-12-04T17:22:10.860Z," 6.93"
2018-12-04T17:27:06.447Z," 6.95"
2018-12-04T17:32:03.094Z," 6.92"
2018-12-04T17:36:58.724Z," 7.00"
2018-12-04T17:41:55.103Z," 6.88"
2018-12-04T17:46:50.861Z," 6.70"
2018-12-04T17:51:46.758Z," 6.66"
2018-12-04T17:56:42.387Z," 6.51"
2018-12-04T18:01:37.996Z," 6.42"
2018-12-04T18:06:34.368Z," 6.49"
2018-12-04T18:11:29.924Z," 6.38"
2018-12-04T18:16:26.791Z," 6.28"
2018-12-04T18:21:23.174Z," 6.52"
2018-12-04T18:26:19.545Z," 6.30"
2018-12-04T18:31:16.025Z," 6.24"
2018-12-04T18:36:11.252Z," 6.19"
2018-12-04T18:41:06.754Z," 5.99"
2018-12-04T18:46:02.393Z," 5.80"
2018-12-04T18:50:57.943Z," 5.86"
2018-12-04T18:55:53.534Z," 5.71"
2018-12-04T19:00:50.194Z," 5.51"
2018-12-04T19:05:46.587Z," 5.59"
2018-12-04T19:10:42.713Z," 5.57"
2018-12-04T19:15:38.499Z," 5.44"
2018-12-04T19:20:34.087Z," 5.38"
2018-12-04T19:25:29.757Z," 5.35"
2018-12-04T19:30:26.104Z," 5.28"
2018-12-04T19:35:22.555Z," 5.26"
2018-12-04T19:40:18.161Z," 5.35"
2018-12-04T19:45:13.787Z," 5.21"
2018-12-04T19:50:13.422Z," 5.12"
2018-12-04T19:55:09.364Z," 5.08"
2018-12-04T20:00:04.879Z," 5.14"
2018-12-04T20:05:00.579Z," 5.02"
2018-12-04T20:09:57.003Z," 4.93"
2018-12-04T20:14:53.003Z," 4.86"
2018-12-04T20:19:49.176Z," 4.71"
2018-12-04T20:24:45.233Z," 4.73"
2018-12-04T20:29:41.503Z," 4.70"
2018-12-04T20:34:37.159Z," 4.22"
2018-12-04T20:39:32.690Z," 4.10"
2018-12-04T20:44:29.162Z," 4.01"
2018-12-04T20:49:24.506Z," 3.99"
2018-12-04T20:54:20.340Z," 4.14"
2018-12-04T20:59:16.053Z," 4.31"
2018-12-04T21:04:11.684Z," 4.23"
2018-12-04T21:09:08.264Z," 4.22"
2018-12-04T21:14:03.538Z," 4.34"
2018-12-04T21:18:59.107Z," 4.28"
2018-12-04T21:23:54.865Z," 4.37"
2018-12-04T21:28:50.599Z," 4.24"
2018-12-04T21:33:46.053Z," 4.42"
2018-12-04T21:38:41.597Z," 4.32"
2018-12-04T21:43:38.355Z," 4.26"
2018-12-04T21:48:33.717Z," 4.20"
2018-12-04T21:53:29.132Z," 4.16"
2018-12-04T21:58:25.676Z," 4.17"
2018-12-04T22:03:21.092Z," 4.32"
2018-12-04T22:08:16.668Z," 4.20"
2018-12-04T22:13:12.358Z," 4.16"
2018-12-04T22:18:08.541Z," 4.24"
2018-12-04T22:23:04.810Z," 4.19"
2018-12-04T22:28:00.266Z," 4.30"
2018-12-04T22:32:56.916Z," 4.37"
2018-12-04T22:37:52.946Z," 4.37"
2018-12-04T22:42:49.002Z," 4.19"
2018-12-04T22:47:44.909Z," 4.14"
2018-12-04T22:52:41.358Z," 3.88"
2018-12-04T22:57:37.186Z," 3.53"
2018-12-04T23:02:33.700Z," 3.25"
2018-12-04T23:07:29.601Z," 3.26"
2018-12-04T23:12:25.020Z," 3.41"
2018-12-04T23:17:20.713Z," 3.59"
2018-12-04T23:22:16.603Z," 3.50"
2018-12-04T23:27:12.138Z," 3.42"
2018-12-04T23:32:07.625Z," 3.16"
2018-12-04T23:37:03.263Z," 3.14"
2018-12-04T23:41:59.221Z," 3.19"
2018-12-04T23:46:55.871Z," 3.01"
2018-12-04T23:51:51.174Z," 3.16"
2018-12-04T23:56:46.881Z," 3.14"
